createdAt,value
2018-09-03T00:01:30.819Z,7.47
2018-09-03T00:04:05.440Z,5.17
2018-09-03T00:06:40.030Z,8.17
2018-09-03T00:09:14.456Z,8.13
2018-09-03T00:11:48.857Z,6.27
2018-09-03T00:14:36.246Z,5.07
2018-09-03T00:17:10.829Z,5.47
2018-09-03T00:19:45.372Z,5.30
2018-09-03T00:22:19.952Z,5.93
2018-09-03T00:24:54.532Z,5.93
2018-09-03T00:27:28.975Z,7.27
2018-09-03T00:30:03.473Z,5.17
2018-09-03T00:32:43.348Z,5.13
2018-09-03T00:35:23.280Z,5.03
2018-09-03T00:38:03.184Z,4.47
2018-09-03T00:40:43.019Z,4.70
2018-09-03T00:43:22.884Z,4.97
2018-09-03T00:47:06.528Z,4.07
2018-09-03T00:49:41.621Z,5.43
2018-09-03T00:52:16.200Z,5.17
2018-09-03T00:54:50.969Z,4.80
2018-09-03T00:57:25.540Z,5.20
2018-09-03T01:00:00.099Z,4.27
2018-09-03T01:02:34.755Z,5.47
2018-09-03T01:05:09.287Z,7.60
2018-09-03T01:07:43.724Z,4.93
2018-09-03T01:10:18.125Z,5.00
2018-09-03T01:12:52.812Z,5.40
2018-09-03T01:15:29.756Z,11.07
2018-09-03T01:18:04.607Z,5.03
2018-09-03T01:20:39.016Z,4.67
2018-09-03T01:26:20.955Z,5.43
2018-09-03T01:28:55.557Z,5.57
2018-09-03T01:31:30.237Z,6.13
2018-09-03T01:34:05.257Z,7.40
2018-09-03T01:36:39.912Z,8.73
2018-09-03T01:39:14.440Z,8.90
2018-09-03T01:41:49.030Z,5.53
2018-09-03T01:44:23.536Z,6.40
2018-09-03T01:46:58.225Z,8.27
2018-09-03T01:49:32.784Z,8.07
2018-09-03T01:52:07.638Z,7.97
2018-09-03T01:54:42.356Z,7.23
2018-09-03T01:57:17.365Z,7.67
2018-09-03T01:59:52.040Z,7.43
2018-09-03T02:02:26.549Z,8.03
2018-09-03T02:05:01.228Z,6.80
2018-09-03T02:07:35.864Z,6.17
2018-09-03T02:10:10.844Z,7.30
2018-09-03T02:12:45.220Z,7.40
2018-09-03T02:15:19.781Z,6.37
2018-09-03T02:17:54.482Z,8.03
2018-09-03T02:20:29.064Z,10.83
2018-09-03T02:23:03.920Z,9.10
2018-09-03T02:25:38.636Z,6.87
2018-09-03T02:28:13.208Z,6.83
2018-09-03T02:30:47.698Z,7.77
2018-09-03T02:33:22.226Z,7.87
2018-09-03T02:35:56.946Z,7.30
2018-09-03T02:38:31.464Z,8.60
2018-09-03T02:41:06.648Z,6.10
2018-09-03T02:43:41.637Z,8.43
2018-09-03T02:46:16.128Z,6.87
2018-09-03T02:48:50.684Z,11.80
2018-09-03T02:51:25.359Z,9.50
2018-09-03T02:54:06.193Z,7.17
2018-09-03T02:56:48.403Z,7.40
2018-09-03T03:02:21.613Z,6.27
2018-09-03T03:04:56.276Z,10.63
2018-09-03T03:07:30.928Z,10.27
2018-09-03T03:10:05.836Z,6.53
2018-09-03T03:12:40.365Z,5.17
2018-09-03T03:15:18.901Z,6.10
2018-09-03T03:17:53.404Z,6.23
2018-09-03T03:20:28.083Z,7.20
2018-09-03T03:23:02.604Z,8.00
2018-09-03T03:25:37.484Z,5.77
2018-09-03T03:28:11.908Z,6.20
2018-09-03T03:30:46.361Z,6.67
2018-09-03T03:33:20.801Z,6.07
2018-09-03T03:35:55.244Z,9.27
2018-09-03T03:38:29.720Z,6.70
2018-09-03T03:41:04.409Z,5.93
2018-09-03T03:43:38.925Z,9.63
2018-09-03T03:46:14.085Z,7.00
2018-09-03T03:48:48.695Z,8.37
2018-09-03T03:51:23.272Z,8.50
2018-09-03T03:53:57.947Z,6.83
2018-09-03T03:56:32.580Z,12.97
2018-09-03T03:59:07.169Z,5.63
2018-09-03T04:01:41.800Z,10.17
2018-09-03T04:04:16.427Z,8.73
2018-09-03T04:06:51.056Z,10.07
2018-09-03T04:09:25.491Z,7.10
2018-09-03T04:12:00.049Z,12.73
2018-09-03T04:14:34.673Z,9.77
2018-09-03T04:17:09.396Z,8.57
2018-09-03T04:19:48.198Z,15.90
2018-09-03T04:22:22.748Z,11.10
2018-09-03T04:24:57.601Z,8.67
2018-09-03T04:27:32.276Z,10.70
2018-09-03T04:30:07.321Z,12.23
2018-09-03T04:32:41.884Z,9.30
2018-09-03T04:35:16.570Z,14.63
2018-09-03T04:37:51.336Z,11.30
2018-09-03T04:40:26.072Z,11.50
2018-09-03T04:43:00.684Z,11.63
2018-09-03T04:45:35.281Z,15.37
2018-09-03T04:48:09.912Z,9.27
2018-09-03T04:50:44.432Z,9.93
2018-09-03T04:53:19.145Z,9.67
2018-09-03T04:55:53.764Z,6.93
2018-09-03T04:58:28.297Z,12.03
2018-09-03T05:01:02.760Z,10.00
2018-09-03T05:03:37.567Z,8.23
2018-09-03T05:06:12.142Z,11.13
2018-09-03T05:08:46.684Z,12.17
2018-09-03T05:11:21.285Z,10.77
2018-09-03T05:13:55.909Z,11.67
2018-09-03T05:16:30.776Z,11.60
2018-09-03T05:19:05.649Z,10.67
2018-09-03T05:21:40.211Z,12.23
2018-09-03T05:24:14.781Z,10.77
2018-09-03T05:26:49.564Z,9.60
2018-09-03T05:29:24.468Z,9.80
2018-09-03T05:31:59.007Z,9.57
2018-09-03T05:34:33.907Z,9.13
2018-09-03T05:37:08.389Z,9.13
2018-09-03T05:39:43.279Z,8.00
2018-09-03T05:42:18.045Z,7.53
2018-09-03T05:44:52.690Z,9.03
2018-09-03T05:47:27.417Z,10.93
2018-09-03T05:50:02.137Z,10.37
2018-09-03T05:52:37.121Z,8.77
2018-09-03T05:55:12.069Z,9.33
2018-09-03T05:57:46.516Z,13.33
2018-09-03T06:00:21.338Z,11.67
2018-09-03T06:02:55.876Z,12.60
2018-09-03T06:05:30.296Z,10.80
2018-09-03T06:08:05.027Z,13.80
2018-09-03T06:10:40.020Z,7.40
2018-09-03T06:13:14.472Z,14.03
2018-09-03T06:15:49.172Z,9.97
2018-09-03T06:18:24.109Z,8.57
2018-09-03T06:20:59.145Z,9.67
2018-09-03T06:23:33.927Z,8.17
2018-09-03T06:26:08.449Z,9.87
2018-09-03T06:28:42.949Z,10.87
2018-09-03T06:31:17.592Z,10.30
2018-09-03T06:33:52.308Z,9.30
2018-09-03T06:36:26.985Z,10.83
2018-09-03T06:39:01.465Z,11.37
2018-09-03T06:41:35.981Z,13.43
2018-09-03T06:44:11.022Z,10.33
2018-09-03T06:46:45.546Z,10.73
2018-09-03T06:49:24.112Z,10.97
2018-09-03T06:57:56.826Z,13.10
2018-09-03T07:00:31.685Z,12.20
2018-09-03T07:09:08.401Z,12.47
2018-09-03T07:11:43.108Z,18.77
2018-09-03T07:14:17.710Z,11.73
2018-09-03T07:16:52.429Z,14.47
2018-09-03T07:19:27.463Z,13.97
2018-09-03T07:22:02.068Z,15.37
2018-09-03T07:24:36.934Z,10.60
2018-09-03T07:27:11.313Z,15.30
2018-09-03T07:29:45.767Z,12.37
2018-09-03T07:32:20.369Z,13.67
2018-09-03T07:34:54.984Z,17.23
2018-09-03T07:37:29.599Z,14.67
2018-09-03T07:40:04.236Z,14.43
2018-09-03T07:42:38.842Z,14.37
2018-09-03T07:45:13.376Z,16.53
2018-09-03T07:47:47.960Z,12.33
2018-09-03T07:50:22.894Z,16.90
2018-09-03T07:52:57.844Z,16.67
2018-09-03T07:55:32.232Z,12.50
2018-09-03T07:58:09.224Z,14.20
2018-09-03T08:00:43.722Z,12.90
2018-09-03T08:03:18.776Z,12.20
2018-09-03T08:05:53.493Z,11.60
2018-09-03T08:08:28.098Z,13.00
2018-09-03T08:11:02.716Z,11.93
2018-09-03T08:13:41.852Z,13.77
2018-09-03T08:16:16.605Z,13.23
2018-09-03T08:18:51.222Z,15.37
2018-09-03T08:21:25.789Z,12.93
2018-09-03T08:24:00.328Z,13.10
2018-09-03T08:26:34.794Z,12.67
2018-09-03T08:29:09.526Z,10.83
2018-09-03T08:31:44.828Z,15.50
2018-09-03T08:34:20.104Z,16.00
2018-09-03T08:36:54.432Z,12.80
2018-09-03T08:39:28.950Z,13.47
2018-09-03T08:42:03.620Z,17.27
2018-09-03T08:44:39.701Z,14.50
2018-09-03T08:47:14.225Z,15.90
2018-09-03T08:49:48.866Z,16.10
2018-09-03T08:52:23.530Z,12.63
2018-09-03T08:55:00.160Z,14.10
2018-09-03T08:57:35.366Z,16.67
2018-09-03T09:00:10.073Z,15.67
2018-09-03T09:02:44.617Z,15.30
2018-09-03T09:05:19.108Z,14.50
2018-09-03T09:07:53.820Z,18.93
2018-09-03T09:10:28.521Z,17.67
2018-09-03T09:13:03.150Z,17.40
2018-09-03T09:15:37.672Z,18.57
2018-09-03T09:18:12.252Z,15.20
2018-09-03T09:20:47.427Z,16.73
2018-09-03T09:23:21.842Z,18.33
2018-09-03T09:25:56.504Z,16.87
2018-09-03T09:28:31.077Z,19.70
2018-09-03T09:31:19.546Z,17.13
2018-09-03T09:33:54.129Z,16.57
2018-09-03T09:36:28.846Z,16.17
2018-09-03T09:39:03.740Z,17.13
2018-09-03T09:41:38.185Z,16.00
2018-09-03T09:44:12.685Z,18.67
2018-09-03T09:46:47.316Z,15.80
2018-09-03T09:49:23.489Z,13.43
2018-09-03T09:52:16.564Z,13.60
2018-09-03T09:54:51.392Z,13.83
2018-09-03T09:57:33.804Z,14.20
2018-09-03T10:00:11.168Z,14.37
2018-09-03T10:02:45.621Z,14.57
2018-09-03T10:05:20.351Z,13.63
2018-09-03T10:07:54.915Z,16.47
2018-09-03T10:10:29.756Z,16.07
2018-09-03T10:13:04.448Z,13.30
2018-09-03T10:15:39.381Z,14.67
2018-09-03T10:18:14.056Z,13.30
2018-09-03T10:20:48.811Z,13.80
2018-09-03T10:23:23.316Z,11.60
2018-09-03T10:25:58.185Z,12.67
2018-09-03T10:28:34.720Z,14.47
2018-09-03T10:31:09.117Z,15.67
2018-09-03T10:33:43.441Z,14.37
2018-09-03T10:36:17.941Z,13.53
2018-09-03T10:38:52.504Z,12.63
2018-09-03T10:41:27.022Z,14.00
2018-09-03T10:47:02.707Z,14.73
2018-09-03T10:49:37.052Z,11.47
2018-09-03T10:52:11.619Z,13.40
2018-09-03T10:54:46.137Z,11.57
2018-09-03T10:57:20.821Z,11.60
2018-09-03T10:59:55.240Z,12.87
2018-09-03T11:02:30.181Z,12.83
2018-09-03T11:05:04.865Z,13.37
2018-09-03T11:07:40.495Z,13.93
2018-09-03T11:10:14.972Z,12.67
2018-09-03T11:12:49.558Z,12.63
2018-09-03T11:15:24.545Z,17.37
2018-09-03T11:17:58.939Z,12.23
2018-09-03T11:20:33.565Z,10.90
2018-09-03T11:23:08.073Z,12.10
2018-09-03T11:25:42.768Z,12.40
2018-09-03T11:28:17.412Z,20.33
2018-09-03T11:30:52.313Z,12.57
2018-09-03T11:33:44.948Z,12.10
2018-09-03T11:36:37.965Z,17.40
2018-09-03T11:39:13.113Z,14.20
2018-09-03T11:41:47.536Z,15.43
2018-09-03T11:44:22.140Z,12.90
2018-09-03T11:46:56.749Z,16.37
2018-09-03T11:49:31.568Z,15.30
2018-09-03T11:52:06.265Z,15.37
2018-09-03T11:54:52.068Z,17.80
2018-09-03T11:57:36.257Z,16.87
2018-09-03T12:00:13.725Z,17.47
2018-09-03T12:02:48.397Z,17.27
2018-09-03T12:05:23.029Z,20.93
2018-09-03T12:07:57.667Z,21.77
2018-09-03T12:10:32.117Z,20.73
2018-09-03T12:13:06.728Z,22.57
2018-09-03T12:15:45.344Z,24.57
2018-09-03T12:18:19.904Z,18.67
2018-09-03T12:20:54.541Z,13.50
2018-09-03T12:23:29.271Z,15.13
2018-09-03T12:26:03.875Z,15.83
2018-09-03T12:28:38.624Z,14.70
2018-09-03T12:31:13.315Z,16.57
2018-09-03T12:33:47.953Z,14.27
2018-09-03T12:36:22.216Z,13.23
2018-09-03T12:38:56.587Z,13.70
2018-09-03T12:41:30.969Z,15.90
2018-09-03T12:44:05.433Z,13.67
2018-09-03T12:46:39.853Z,13.63
2018-09-03T12:49:14.257Z,14.27
2018-09-03T12:51:48.725Z,15.00
2018-09-03T12:54:22.907Z,13.73
2018-09-03T12:56:57.588Z,21.07
2018-09-03T12:59:32.060Z,21.10
2018-09-03T13:02:07.668Z,20.00
2018-09-03T13:04:41.850Z,20.40
2018-09-03T13:07:16.483Z,22.47
2018-09-03T13:09:51.015Z,18.50
2018-09-03T13:12:25.360Z,23.27
2018-09-03T13:14:59.756Z,16.67
2018-09-03T13:17:34.249Z,15.87
2018-09-03T13:20:08.635Z,16.27
2018-09-03T13:22:43.106Z,19.87
2018-09-03T13:25:18.229Z,17.97
2018-09-03T13:27:52.699Z,18.53
2018-09-03T13:30:27.340Z,18.53
2018-09-03T13:33:01.851Z,19.23
2018-09-03T13:35:36.190Z,18.47
2018-09-03T13:38:10.561Z,18.23
2018-09-03T13:40:45.133Z,17.67
2018-09-03T13:43:19.624Z,22.97
2018-09-03T13:45:56.884Z,22.33
2018-09-03T13:48:44.099Z,18.63
2018-09-03T13:51:18.538Z,25.10
2018-09-03T13:53:53.816Z,21.10
2018-09-03T13:56:28.642Z,21.40
2018-09-03T13:59:03.026Z,23.53
2018-09-03T14:01:37.495Z,22.07
2018-09-03T14:04:21.723Z,18.97
2018-09-03T14:10:03.563Z,24.07
2018-09-03T14:12:37.827Z,23.33
2018-09-03T14:15:24.643Z,26.30
2018-09-03T14:17:59.051Z,21.03
2018-09-03T14:20:33.756Z,20.60
2018-09-03T14:23:08.356Z,30.47
2018-09-03T14:25:52.122Z,21.30
2018-09-03T14:28:26.883Z,23.83
2018-09-03T14:31:01.413Z,24.17
2018-09-03T14:36:35.703Z,25.63
2018-09-03T14:39:11.420Z,21.63
2018-09-03T14:41:46.495Z,24.50
2018-09-03T14:44:20.810Z,22.53
2018-09-03T14:46:55.466Z,23.27
2018-09-03T14:49:30.955Z,26.87
2018-09-03T14:52:05.794Z,27.53
2018-09-03T14:54:40.215Z,23.00
2018-09-03T14:57:14.774Z,27.20
2018-09-03T15:02:48.527Z,25.37
2018-09-03T15:05:23.198Z,25.50
2018-09-03T15:07:57.489Z,23.73
2018-09-03T15:10:50.935Z,26.63
2018-09-03T15:13:40.660Z,25.67
2018-09-03T15:16:15.193Z,22.90
2018-09-03T15:18:49.745Z,26.53
2018-09-03T15:21:24.204Z,20.73
2018-09-03T15:23:58.736Z,21.23
2018-09-03T15:26:33.170Z,22.43
2018-09-03T15:29:08.057Z,25.20
2018-09-03T15:31:42.535Z,24.67
2018-09-03T15:37:40.599Z,24.20
2018-09-03T15:40:15.128Z,28.17
2018-09-03T15:42:49.914Z,23.03
2018-09-03T15:45:24.103Z,26.70
2018-09-03T15:47:58.843Z,25.37
2018-09-03T15:50:33.046Z,27.67
2018-09-03T15:53:07.672Z,25.17
2018-09-03T15:55:43.283Z,25.97
2018-09-03T15:58:18.148Z,25.47
2018-09-03T16:00:52.658Z,23.80
2018-09-03T16:03:27.119Z,25.90
2018-09-03T16:14:58.065Z,27.67
2018-09-03T16:17:32.355Z,32.83
2018-09-03T16:20:06.763Z,30.70
2018-09-03T16:22:41.190Z,27.63
2018-09-03T16:25:15.875Z,26.40
2018-09-03T16:27:50.382Z,38.47
2018-09-03T16:30:24.729Z,33.27
2018-09-03T16:32:59.189Z,28.70
2018-09-03T16:35:33.496Z,26.53
2018-09-03T16:38:07.884Z,26.50
2018-09-03T16:40:42.347Z,28.07
2018-09-03T16:43:16.741Z,23.67
2018-09-03T16:45:51.040Z,24.43
2018-09-03T16:48:25.600Z,26.40
2018-09-03T16:51:00.027Z,26.90
2018-09-03T16:53:34.738Z,22.97
2018-09-03T16:56:10.028Z,24.97
2018-09-03T16:58:44.568Z,25.97
2018-09-03T17:01:19.163Z,25.03
2018-09-03T17:03:53.380Z,25.33
2018-09-03T17:06:27.889Z,22.97
2018-09-03T17:09:02.303Z,27.40
2018-09-03T17:11:36.687Z,26.67
2018-09-03T17:14:11.068Z,25.43
2018-09-03T17:16:45.598Z,25.93
2018-09-03T17:19:20.450Z,24.37
2018-09-03T17:21:54.824Z,27.57
2018-09-03T17:24:29.424Z,27.27
2018-09-03T17:27:04.018Z,29.40
2018-09-03T17:29:38.316Z,25.80
2018-09-03T17:32:12.732Z,28.00
2018-09-03T17:34:47.352Z,29.23
2018-09-03T17:37:21.724Z,28.57
2018-09-03T17:39:56.157Z,24.97
2018-09-03T17:42:30.977Z,30.70
2018-09-03T17:45:06.568Z,27.17
2018-09-03T17:47:41.416Z,27.67
2018-09-03T17:50:16.226Z,30.20
2018-09-03T17:52:50.894Z,28.13
2018-09-03T17:55:43.973Z,26.70
2018-09-03T17:58:18.608Z,24.10
2018-09-03T18:00:53.233Z,27.20
2018-09-03T18:03:28.126Z,28.03
2018-09-03T18:06:02.860Z,28.10
2018-09-03T18:08:37.653Z,29.30
2018-09-03T18:11:12.339Z,30.70
2018-09-03T18:13:47.419Z,29.60
2018-09-03T18:16:22.744Z,30.93
2018-09-03T18:18:57.357Z,28.80
2018-09-03T18:21:32.112Z,31.37
2018-09-03T18:24:07.209Z,35.30
2018-09-03T18:26:43.203Z,33.53
2018-09-03T18:29:30.125Z,29.20
2018-09-03T18:32:05.117Z,34.67
2018-09-03T18:34:39.801Z,31.33
2018-09-03T18:37:14.662Z,37.47
2018-09-03T18:39:52.981Z,35.80
2018-09-03T18:42:32.182Z,30.13
2018-09-03T18:45:12.256Z,35.73
2018-09-03T18:47:47.353Z,35.90
2018-09-03T18:50:39.899Z,31.00
2018-09-03T18:53:19.852Z,34.67
2018-09-03T18:55:54.403Z,37.03
2018-09-03T18:58:47.592Z,33.83
2018-09-03T19:01:24.252Z,37.53
2018-09-03T19:03:59.057Z,36.87
2018-09-03T19:06:33.473Z,31.97
2018-09-03T19:09:09.105Z,33.57
2018-09-03T19:11:45.460Z,35.10
2018-09-03T19:14:43.061Z,30.60
2018-09-03T19:17:17.629Z,31.00
2018-09-03T19:19:52.218Z,29.77
2018-09-03T19:22:32.761Z,35.97
2018-09-03T19:25:07.517Z,32.27
2018-09-03T19:27:42.434Z,35.10
2018-09-03T19:30:17.308Z,36.67
2018-09-03T19:35:51.544Z,37.10
2018-09-03T19:38:26.399Z,37.23
2018-09-03T19:41:01.465Z,32.33
2018-09-03T19:43:36.001Z,34.70
2018-09-03T19:46:10.734Z,35.13
2018-09-03T19:48:45.495Z,35.80
2018-09-03T19:51:20.256Z,29.90
2018-09-03T19:54:05.727Z,34.30
2018-09-03T19:59:39.877Z,35.23
2018-09-03T20:02:16.202Z,35.80
2018-09-03T20:04:50.974Z,34.73
2018-09-03T20:07:27.606Z,35.20
2018-09-03T20:10:09.388Z,34.37
2018-09-03T20:12:44.284Z,31.97
2018-09-03T20:15:25.126Z,29.37
2018-09-03T20:17:59.870Z,34.70
2018-09-03T20:20:34.750Z,39.50
2018-09-03T20:23:13.238Z,37.07
2018-09-03T20:25:47.721Z,39.77
2018-09-03T20:28:24.015Z,37.57
2018-09-03T20:30:58.485Z,35.20
2018-09-03T20:33:33.006Z,32.83
2018-09-03T20:36:07.557Z,30.37
2018-09-03T20:38:42.026Z,32.50
2018-09-03T20:41:17.009Z,34.67
2018-09-03T20:43:51.510Z,32.57
2018-09-03T20:46:26.230Z,34.50
2018-09-03T20:49:07.041Z,36.63
2018-09-03T20:54:46.487Z,38.27
2018-09-03T20:57:28.201Z,38.30
2018-09-03T21:00:02.919Z,39.80
2018-09-03T21:02:37.665Z,45.20
2018-09-03T21:05:12.352Z,41.30
2018-09-03T21:07:46.950Z,35.87
2018-09-03T21:10:21.530Z,38.40
2018-09-03T21:12:56.134Z,41.23
2018-09-03T21:18:29.697Z,43.83
2018-09-03T21:24:09.571Z,53.20
2018-09-03T21:26:57.596Z,58.53
2018-09-03T21:29:32.342Z,60.67
2018-09-03T21:32:06.981Z,54.93
2018-09-03T21:34:41.853Z,59.33
2018-09-03T21:37:16.567Z,57.63
2018-09-03T21:39:51.133Z,57.03
2018-09-03T21:42:25.793Z,58.10
2018-09-03T21:45:00.361Z,57.60
2018-09-03T21:50:41.117Z,54.80
2018-09-03T21:53:37.062Z,54.20
2018-09-03T21:56:11.685Z,49.77
2018-09-03T21:58:46.756Z,60.40
2018-09-03T22:01:21.405Z,58.33
2018-09-03T22:03:56.034Z,54.63
2018-09-03T22:06:31.914Z,51.10
2018-09-03T22:09:07.192Z,52.57
2018-09-03T22:11:41.843Z,58.63
2018-09-03T22:14:16.436Z,51.30
2018-09-03T22:16:51.016Z,50.57
2018-09-03T22:19:25.593Z,52.53
2018-09-03T22:22:00.452Z,47.30
2018-09-03T22:24:35.199Z,54.67
2018-09-03T22:27:09.760Z,49.97
2018-09-03T22:29:44.248Z,44.13
2018-09-03T22:32:18.959Z,47.73
2018-09-03T22:34:53.488Z,50.40
2018-09-03T22:37:28.044Z,49.60
2018-09-03T22:40:02.726Z,53.07
2018-09-03T22:42:37.308Z,50.53
2018-09-03T22:45:22.013Z,52.17
2018-09-03T22:47:56.653Z,57.00
2018-09-03T22:50:31.374Z,59.07
2018-09-03T22:53:06.253Z,56.30
2018-09-03T22:55:40.825Z,57.63
2018-09-03T22:58:15.485Z,52.73
2018-09-03T23:00:50.405Z,55.33
2018-09-03T23:03:24.864Z,58.87
2018-09-03T23:05:59.497Z,61.93
2018-09-03T23:08:34.135Z,66.67
2018-09-03T23:11:08.927Z,65.10
2018-09-03T23:13:44.101Z,63.43
2018-09-03T23:16:35.601Z,62.60
2018-09-03T23:19:11.117Z,65.60
2018-09-03T23:21:45.736Z,56.43
2018-09-03T23:24:20.536Z,74.73
2018-09-03T23:27:09.061Z,69.53
2018-09-03T23:29:43.713Z,69.37
2018-09-03T23:32:23.245Z,70.63
2018-09-03T23:34:58.319Z,73.97
2018-09-03T23:37:32.808Z,65.23
2018-09-03T23:40:08.365Z,67.50
2018-09-03T23:42:43.188Z,78.03
2018-09-03T23:45:17.865Z,87.87
2018-09-03T23:47:52.364Z,81.53
2018-09-03T23:50:26.972Z,91.70
2018-09-03T23:53:01.650Z,80.70
2018-09-03T23:55:36.185Z,82.77
2018-09-03T23:58:10.862Z,81.03
